Time;durP1;ratioP1;P1;durP2;ratioP2;P2;SDS_P1;SDS_P2;PMS_P1;PMS_P2;Temp;Humidity;BMP_temperature;BMP_pressure;BME280_temperature;BME280_humidity;BME280_pressure;Samples;Min_cycle;Max_cycle;Signal;HPM_P1;HPM_P2
2022/05/02 00:00:24;;;;;;;6.28;2.60;;;;;;;10.86;62.38;150384.44;1749987;82;21111;-59
2022/05/02 00:02:51;;;;;;;4.30;2.58;;;;;;;11.03;61.58;150425.98;1750135;81;21027;-59
2022/05/02 00:05:18;;;;;;;7.60;2.40;;;;;;;11.18;61.16;150463.63;1750116;82;21008;-59
2022/05/02 00:07:46;;;;;;;5.92;2.30;;;;;;;11.27;60.97;150485.69;1749800;81;21098;-60
2022/05/02 00:10:15;;;;;;;5.00;2.60;;;;;;;11.32;60.59;150499.98;1750477;81;20975;-60
2022/05/02 00:12:42;;;;;;;4.53;2.27;;;;;;;11.37;60.40;150511.64;1749615;81;21146;-60
2022/05/02 00:15:11;;;;;;;5.25;2.65;;;;;;;11.44;60.10;150529.84;1750383;81;20937;-60
2022/05/02 00:17:58;;;;;;;6.03;3.35;;;;;;;11.48;59.87;150537.63;1750117;81;21282;-60
2022/05/02 00:20:36;;;;;;;4.65;3.12;;;;;;;11.48;59.81;150537.63;1749817;82;21094;-60
2022/05/02 00:23:07;;;;;;;6.42;3.10;;;;;;;11.43;59.97;150527.25;1750173;82;21283;-59
2022/05/02 00:25:35;;;;;;;5.78;3.15;;;;;;;11.36;60.13;150509.05;1749395;80;21048;-61
2022/05/02 00:28:05;;;;;;;6.15;3.25;;;;;;;11.30;60.46;150493.47;1750680;81;21118;-60
2022/05/02 00:30:32;;;;;;;6.92;3.60;;;;;;;11.24;60.74;150477.91;1749218;82;21119;-59
2022/05/02 00:33:01;;;;;;;4.10;2.98;;;;;;;11.16;61.07;150458.44;1749666;80;21188;-60
2022/05/02 00:35:28;;;;;;;7.15;2.85;;;;;;;11.08;61.63;150438.94;1749424;81;21466;-60
2022/05/02 00:37:57;;;;;;;6.50;3.30;;;;;;;11.00;62.03;150418.20;1749674;80;21553;-61
2022/05/02 00:40:24;;;;;;;6.47;2.95;;;;;;;10.96;62.54;150407.81;1750045;80;21118;-61
2022/05/02 00:42:53;;;;;;;6.10;3.37;;;;;;;10.96;62.95;150407.81;1750006;81;21007;-61
2022/05/02 00:45:20;;;;;;;5.15;3.65;;;;;;;10.94;63.03;150403.91;1750408;80;21362;-60
2022/05/02 00:47:53;;;;;;;4.65;3.37;;;;;;;10.88;63.01;150388.34;1750257;82;21975;-61
2022/05/02 00:50:36;;;;;;;5.30;2.98;;;;;;;10.82;63.08;150374.06;1750169;81;21052;-60
2022/05/02 00:53:08;;;;;;;4.58;2.30;;;;;;;10.82;63.33;150374.06;1750373;81;21021;-60
2022/05/02 00:55:35;;;;;;;3.80;2.35;;;;;;;10.86;63.11;150384.44;1749671;81;21023;-60
2022/05/02 00:58:03;;;;;;;5.42;3.00;;;;;;;10.97;62.80;150411.69;1750449;82;21545;-60
2022/05/02 01:00:33;;;;;;;7.08;4.00;;;;;;;11.07;62.57;150436.36;1750321;82;21918;-60
2022/05/02 01:03:01;;;;;;;7.25;4.00;;;;;;;11.07;62.59;150436.36;1750064;80;21073;-60
2022/05/02 01:05:28;;;;;;;6.05;4.12;;;;;;;11.00;63.03;150418.20;1749984;81;21043;-60
2022/05/02 01:07:55;;;;;;;12.47;8.90;;;;;;;10.96;63.56;150407.81;1750010;81;21072;-59
2022/05/02 01:10:24;;;;;;;5.97;4.83;;;;;;;10.87;63.86;150387.02;1750219;80;20960;-60
2022/05/02 01:12:52;;;;;;;5.33;3.42;;;;;;;10.82;64.46;150374.06;1750140;80;21458;-61
2022/05/02 01:15:19;;;;;;;7.05;3.72;;;;;;;10.74;64.96;150353.31;1750413;81;21036;-60
2022/05/02 01:17:46;;;;;;;7.42;3.77;;;;;;;10.68;65.61;150337.70;1733818;81;21515;-60
2022/05/02 01:20:15;;;;;;;6.22;3.67;;;;;;;10.65;66.59;150329.92;1732985;81;21095;-61
2022/05/02 01:22:43;;;;;;;5.28;3.50;;;;;;;10.62;67.18;150322.14;1732917;82;21087;-60
2022/05/02 01:25:10;;;;;;;8.35;4.00;;;;;;;10.56;67.80;150307.86;1733208;81;21195;-60
2022/05/02 01:27:37;;;;;;;9.93;4.35;;;;;;;10.50;68.67;150293.61;1732484;81;21036;-60
2022/05/02 01:30:06;;;;;;;6.78;4.20;;;;;;;10.39;69.73;150266.31;1732742;82;21031;-60
2022/05/02 01:32:33;;;;;;;7.70;4.25;;;;;;;10.30;70.44;150242.94;1732855;81;21039;-60
2022/05/02 01:35:00;;;;;;;8.25;4.17;;;;;;;10.22;71.04;150223.47;1732931;82;21082;-60
2022/05/02 01:37:27;;;;;;;8.93;4.58;;;;;;;10.17;71.50;150210.50;1732304;81;21234;-60
2022/05/02 01:39:54;;;;;;;6.95;3.80;;;;;;;10.13;72.12;150200.13;1732267;82;21043;-61
2022/05/02 01:42:22;;;;;;;6.75;4.45;;;;;;;10.11;72.34;150194.95;1732518;82;21445;-60
2022/05/02 01:44:49;;;;;;;6.80;4.25;;;;;;;10.12;72.76;150198.81;1732304;82;22191;-60
2022/05/02 01:47:16;;;;;;;7.22;3.95;;;;;;;10.12;73.11;150197.55;1732892;82;21008;-60
2022/05/02 01:49:44;;;;;;;5.87;4.08;;;;;;;10.10;73.66;150192.36;1732512;82;21911;-59
2022/05/02 01:52:11;;;;;;;7.17;4.10;;;;;;;10.07;74.20;150184.59;1732989;82;21021;-59
2022/05/02 01:54:38;;;;;;;6.12;4.15;;;;;;;10.07;75.00;150184.59;1732247;82;21512;-60
2022/05/02 01:57:06;;;;;;;10.28;4.85;;;;;;;10.10;75.38;150192.36;1732762;81;21083;-61
2022/05/02 01:59:33;;;;;;;6.10;4.20;;;;;;;10.13;75.56;150200.13;1733146;82;21067;-61
2022/05/02 02:02:00;;;;;;;7.65;4.37;;;;;;;10.18;75.64;150213.09;1732905;82;21257;-61
2022/05/02 02:07:14;;;;;;;9.00;4.60;;;;;;;10.25;75.74;150231.25;1733038;82;20961;-61
2022/05/02 02:09:41;;;;;;;7.65;4.00;;;;;;;10.29;75.76;150241.66;1732898;82;21316;-59
2022/05/02 02:12:10;;;;;;;7.95;4.28;;;;;;;10.31;75.76;150246.84;1732756;82;21012;-60
2022/05/02 02:14:37;;;;;;;11.08;4.35;;;;;;;10.30;75.72;150244.25;1732591;82;21235;-60
2022/05/02 02:17:05;;;;;;;8.55;5.20;;;;;;;10.28;75.95;150239.08;1741185;80;21091;-59
2022/05/02 02:19:32;;;;;;;6.25;4.60;;;;;;;10.21;76.40;150219.59;1750462;81;21504;-60
2022/05/02 02:22:17;;;;;;;6.95;4.42;;;;;;;10.16;76.83;150209.19;1749965;81;21032;-60
2022/05/02 02:24:48;;;;;;;8.33;4.47;;;;;;;10.09;77.45;150191.03;1749725;80;21510;-60
2022/05/02 02:27:15;;;;;;;7.05;4.08;;;;;;;10.01;77.57;150170.31;1750081;82;21128;-59
2022/05/02 02:29:42;;;;;;;6.50;4.08;;;;;;;9.97;77.85;150161.20;1749457;81;21043;-59
2022/05/02 02:32:10;;;;;;;5.53;3.60;;;;;;;9.90;78.65;150143.06;1750185;82;20996;-59
2022/05/02 02:34:37;;;;;;;7.50;4.28;;;;;;;9.87;78.72;150135.28;1749414;82;21118;-59
2022/05/02 02:37:05;;;;;;;6.10;4.03;;;;;;;9.90;78.66;150143.06;1749765;82;21107;-58
2022/05/02 02:39:32;;;;;;;7.28;3.75;;;;;;;9.96;78.43;150158.61;1750019;81;21211;-58
2022/05/02 02:42:00;;;;;;;7.72;4.30;;;;;;;10.01;78.29;150171.58;1749782;81;20987;-58
2022/05/02 02:44:27;;;;;;;6.87;4.17;;;;;;;10.07;78.03;150185.86;1749475;80;21008;-60
2022/05/02 02:46:55;;;;;;;5.40;3.55;;;;;;;10.14;77.53;150202.73;1749711;82;21107;-60
2022/05/02 02:49:22;;;;;;;7.97;4.17;;;;;;;10.21;77.31;150220.88;1749830;80;21051;-60
2022/05/02 02:51:49;;;;;;;8.03;4.25;;;;;;;10.26;77.13;150233.84;1749814;81;21193;-59
2022/05/02 02:54:16;;;;;;;9.55;4.08;;;;;;;10.27;77.06;150235.16;1749978;81;20977;-58
2022/05/02 02:56:44;;;;;;;5.75;4.00;;;;;;;10.24;77.25;150227.38;1750188;81;21027;-59
2022/05/02 02:59:11;;;;;;;6.92;3.77;;;;;;;10.17;77.66;150211.83;1750294;81;20995;-60
2022/05/02 03:01:38;;;;;;;7.12;4.50;;;;;;;10.11;78.15;150194.95;1749906;81;21094;-59
2022/05/02 03:06:51;;;;;;;7.40;4.12;;;;;;;10.00;78.84;150168.98;1731731;80;21019;-61
2022/05/02 03:09:18;;;;;;;8.05;4.80;;;;;;;10.00;78.93;150168.98;1749944;80;20973;-61
2022/05/02 03:11:47;;;;;;;5.92;4.00;;;;;;;10.01;79.02;150171.58;1749622;81;21087;-60
2022/05/02 03:14:14;;;;;;;7.03;4.22;;;;;;;10.03;79.22;150175.48;1750073;80;20853;-60
2022/05/02 03:16:41;;;;;;;10.20;4.47;;;;;;;10.06;79.30;150183.27;1749358;80;21235;-61
2022/05/02 03:19:08;;;;;;;5.90;4.47;;;;;;;10.10;79.38;150192.36;1749807;80;21087;-61
2022/05/02 03:21:37;;;;;;;11.33;4.47;;;;;;;10.13;79.47;150201.41;1749782;80;21150;-61
2022/05/02 03:24:06;;;;;;;7.85;4.40;;;;;;;10.15;79.56;150205.31;1749804;81;21063;-60
2022/05/02 03:26:33;;;;;;;6.33;4.45;;;;;;;10.15;79.71;150206.59;1749750;82;21055;-60
2022/05/02 03:29:01;;;;;;;8.60;4.40;;;;;;;10.14;79.79;150202.73;1749819;82;21218;-60
2022/05/02 03:31:28;;;;;;;8.90;4.22;;;;;;;10.14;80.00;150202.73;1749333;81;21382;-60
2022/05/02 03:33:55;;;;;;;7.70;4.50;;;;;;;10.15;80.19;150206.59;1749416;80;21118;-59
2022/05/02 03:36:22;;;;;;;7.67;4.78;;;;;;;10.12;80.31;150198.81;1749698;82;21070;-60
2022/05/02 03:38:50;;;;;;;8.30;5.28;;;;;;;10.06;80.66;150183.27;1749323;81;21043;-61
2022/05/02 03:41:18;;;;;;;10.23;5.28;;;;;;;10.04;81.01;150179.34;1749887;82;21049;-60
2022/05/02 03:43:45;;;;;;;15.03;5.20;;;;;;;10.07;81.24;150184.59;1749566;80;21030;-60
2022/05/02 03:46:13;;;;;;;8.00;4.78;;;;;;;10.08;81.45;150187.17;1750129;81;20988;-60
2022/05/02 03:48:40;;;;;;;8.80;5.00;;;;;;;10.14;81.66;150204.00;1749505;82;21043;-59
2022/05/02 03:51:07;;;;;;;13.85;5.15;;;;;;;10.26;81.61;150233.84;1749941;82;21090;-59
2022/05/02 03:53:35;;;;;;;8.50;5.08;;;;;;;10.38;81.27;150262.41;1749521;80;21243;-61
2022/05/02 03:56:02;;;;;;;11.70;5.17;;;;;;;10.55;81.06;150306.58;1749736;81;21023;-61
2022/05/02 03:58:29;;;;;;;19.75;5.28;;;;;;;10.69;80.57;150340.30;1749554;80;21516;-60
2022/05/02 04:00:56;;;;;;;12.98;5.12;;;;;;;10.83;80.07;150376.66;1749680;81;21063;-62
2022/05/02 04:03:24;;;;;;;9.75;5.10;;;;;;;10.96;79.50;150407.81;1749955;81;20937;-60
2022/05/02 04:05:51;;;;;;;11.75;4.92;;;;;;;11.07;79.29;150436.36;1750045;82;21306;-58
2022/05/02 04:08:19;;;;;;;11.15;4.90;;;;;;;11.21;79.00;150471.41;1750263;80;21044;-59
2022/05/02 04:10:47;;;;;;;9.20;4.55;;;;;;;11.37;78.72;150510.36;1749812;82;21035;-60
2022/05/02 04:13:14;;;;;;;9.05;5.45;;;;;;;11.49;78.03;150541.50;1750317;81;20948;-59
2022/05/02 04:15:41;;;;;;;11.55;5.55;;;;;;;11.58;77.69;150563.58;1749781;82;21043;-59
2022/05/02 04:18:08;;;;;;;12.50;6.53;;;;;;;11.71;77.48;150597.38;1750505;81;21138;-59
2022/05/02 04:20:36;;;;;;;9.90;6.30;;;;;;;11.87;77.20;150636.34;1750176;82;21290;-61
2022/05/02 04:23:03;;;;;;;9.28;5.22;;;;;;;12.02;76.71;150674.06;1750174;80;21070;-59
2022/05/02 04:25:30;;;;;;;10.00;5.60;;;;;;;12.16;76.24;150709.13;1749763;80;21126;-59
2022/05/02 04:27:58;;;;;;;6.87;5.08;;;;;;;12.30;75.81;150745.52;1749949;82;21070;-60
2022/05/02 04:30:25;;;;;;;9.78;4.90;;;;;;;12.45;75.42;150781.88;1749885;81;21239;-59
2022/05/02 04:32:52;;;;;;;6.12;4.92;;;;;;;12.61;75.06;150823.47;1749668;80;21093;-60
2022/05/02 04:35:20;;;;;;;9.90;4.85;;;;;;;12.77;74.56;150862.47;1750116;81;21098;-58
2022/05/02 04:37:47;;;;;;;10.95;4.97;;;;;;;12.90;74.07;150894.97;1750217;81;21039;-60
2022/05/02 04:40:14;;;;;;;9.10;4.75;;;;;;;13.01;73.64;150922.25;1750501;81;20937;-59
2022/05/02 04:42:42;;;;;;;8.85;5.20;;;;;;;13.11;73.15;150948.23;1749839;80;21236;-58
2022/05/02 04:45:10;;;;;;;8.98;4.85;;;;;;;13.21;72.81;150972.94;1750409;81;21024;-59
2022/05/02 04:47:39;;;;;;;10.53;5.15;;;;;;;13.34;72.26;151005.44;1750064;81;22158;-60
2022/05/02 04:50:07;;;;;;;7.92;4.67;;;;;;;13.51;71.82;151047.11;1750236;81;21023;-59
2022/05/02 04:52:35;;;;;;;6.83;4.37;;;;;;;13.65;71.33;151083.55;1750383;80;21090;-59
2022/05/02 04:55:02;;;;;;;7.28;4.47;;;;;;;13.82;70.84;151125.17;1750101;81;21883;-60
2022/05/02 04:57:29;;;;;;;9.73;5.35;;;;;;;14.00;70.24;151171.97;1749975;82;20956;-60
2022/05/02 04:59:56;;;;;;;7.45;4.72;;;;;;;14.17;69.53;151213.59;1749928;81;20960;-59
2022/05/02 05:02:24;;;;;;;6.50;4.58;;;;;;;14.30;68.75;151247.45;1750104;81;21067;-58
2022/05/02 05:04:51;;;;;;;10.23;5.28;;;;;;;14.46;68.20;151286.45;1729233;81;21102;-58
2022/05/02 05:07:18;;;;;;;7.22;4.62;;;;;;;14.57;67.49;151313.78;1750267;81;21285;-58
2022/05/02 05:09:47;;;;;;;11.12;5.25;;;;;;;14.70;67.03;151347.62;1750119;80;21488;-59
2022/05/02 05:12:47;;;;;;;8.88;4.50;;;;;;;14.82;66.27;151377.62;1750279;81;21418;-61
2022/05/02 05:18:54;;;;;;;10.88;4.83;;;;;;;15.11;65.41;151450.50;1750316;81;20940;-59
2022/05/02 05:21:38;;;;;;;8.98;4.92;;;;;;;15.30;64.91;151497.38;1750140;81;21343;-61
2022/05/02 05:24:20;;;;;;;10.32;4.92;;;;;;;15.43;64.79;151531.25;1750454;81;21091;-60
2022/05/02 05:27:11;;;;;;;9.08;5.05;;;;;;;15.62;64.65;151578.12;1737280;80;21075;-60
2022/05/02 05:30:06;;;;;;;9.68;4.78;;;;;;;15.80;64.35;151622.38;1749743;82;21090;-61
2022/05/02 05:32:45;;;;;;;6.25;4.55;;;;;;;15.96;63.88;151664.13;1749806;81;21059;-59
2022/05/02 05:35:17;;;;;;;11.43;5.58;;;;;;;16.14;63.62;151708.42;1705477;81;21134;-59
2022/05/02 05:38:03;;;;;;;9.68;4.83;;;;;;;16.23;62.95;151731.84;1748532;81;21074;-59
2022/05/02 05:40:42;;;;;;;9.20;4.40;;;;;;;16.22;62.58;151729.25;1749929;80;20870;-60
2022/05/02 05:43:44;;;;;;;10.72;4.95;;;;;;;16.24;62.77;151734.45;1749831;80;21504;-60
2022/05/02 05:46:50;;;;;;;9.55;5.33;;;;;;;16.36;62.56;151763.14;1749727;82;21071;-59
2022/05/02 05:49:51;;;;;;;10.13;5.03;;;;;;;16.50;62.00;151799.64;1708346;81;21214;-60
2022/05/02 05:52:27;;;;;;;9.60;4.83;;;;;;;16.64;62.02;151834.81;1750052;82;21422;-59
2022/05/02 05:55:06;;;;;;;13.50;5.55;;;;;;;16.72;61.37;151855.66;1749410;82;21070;-59
2022/05/02 05:57:54;;;;;;;7.33;4.97;;;;;;;16.75;61.56;151862.19;1749720;81;21067;-60
2022/05/02 06:00:22;;;;;;;9.63;5.50;;;;;;;16.84;61.27;151885.62;1749778;81;20865;-59
2022/05/02 06:03:08;;;;;;;9.10;5.97;;;;;;;16.93;60.50;151906.52;1749000;81;21231;-60
2022/05/02 06:05:44;;;;;;;10.68;6.10;;;;;;;16.95;59.63;151911.72;1749229;81;21023;-59
2022/05/02 06:08:11;;;;;;;9.28;6.00;;;;;;;17.01;59.98;151927.41;1748823;81;21524;-59
2022/05/02 06:10:39;;;;;;;8.35;5.20;;;;;;;16.98;59.85;151919.53;1748465;80;21118;-59
2022/05/02 06:13:06;;;;;;;7.55;5.20;;;;;;;16.93;60.25;151907.78;1749456;81;21103;-59
2022/05/02 06:18:28;;;;;;;10.30;5.33;;;;;;;16.86;60.80;151890.84;1749470;81;21040;-59
2022/05/02 06:20:59;;;;;;;6.15;4.25;;;;;;;16.90;61.30;151899.97;1743544;81;21018;-59
2022/05/02 06:23:32;;;;;;;6.33;4.35;;;;;;;16.90;61.38;151901.25;1741030;80;21006;-59
2022/05/02 06:26:00;;;;;;;6.40;4.55;;;;;;;16.86;61.97;151890.84;1738627;80;21113;-59
2022/05/02 06:28:30;;;;;;;9.50;4.47;;;;;;;16.92;62.29;151903.91;1752403;81;21230;-60
2022/05/02 06:31:00;;;;;;;7.72;4.78;;;;;;;16.98;62.43;151919.53;1749427;81;21101;-59
2022/05/02 06:33:27;;;;;;;6.10;3.98;;;;;;;17.04;62.48;151935.22;1749310;82;21504;-60
2022/05/02 06:36:12;;;;;;;6.00;4.28;;;;;;;17.06;62.23;151940.42;1726891;82;21038;-61
2022/05/02 06:39:15;;;;;;;;;;;;;;;17.02;62.25;151930.00;1752388;82;21024;-60
2022/05/02 06:42:10;;;;;;;6.33;4.03;;;;;;;17.01;62.08;151927.41;1749497;82;22103;-61
2022/05/02 06:44:56;;;;;;;;;;;;;;;16.98;61.80;151920.86;1756404;81;21073;-60
2022/05/02 06:47:47;;;;;;;4.85;3.92;;;;;;;16.98;61.58;151919.53;1709688;83;20145;-59
2022/05/02 06:50:17;;;;;;;6.55;4.40;;;;;;;16.92;61.17;151903.91;1719748;83;21062;-60
2022/05/02 06:53:28;;;;;;;7.40;4.15;;;;;;;16.83;61.87;151881.75;1720044;83;21073;-60
2022/05/02 06:56:27;;;;;;;7.85;4.15;;;;;;;16.87;62.20;151892.16;1745812;81;21498;-59
2022/05/02 06:59:05;;;;;;;8.23;4.08;;;;;;;16.92;61.91;151903.91;1744265;82;21511;-60
2022/05/02 07:02:14;;;;;;;5.83;3.95;;;;;;;16.92;62.03;151903.91;1750534;81;21113;-60
2022/05/02 07:04:52;;;;;;;7.03;4.30;;;;;;;16.88;62.09;151894.77;1755818;81;21438;-60
2022/05/02 07:07:44;;;;;;;6.22;4.03;;;;;;;16.77;62.12;151867.41;1750246;82;21042;-60
2022/05/02 07:10:22;;;;;;;6.03;4.05;;;;;;;16.71;62.74;151853.05;1750220;82;20962;-60
2022/05/02 07:13:13;;;;;;;5.55;3.60;;;;;;;16.69;62.95;151846.52;1750841;81;21085;-61
2022/05/02 07:15:50;;;;;;;7.28;4.25;;;;;;;16.68;62.77;151845.23;1747363;80;20959;-59
2022/05/02 07:18:41;;;;;;;5.35;4.00;;;;;;;16.59;62.90;151823.08;1727506;80;21459;-59
2022/05/02 07:21:25;;;;;;;9.43;4.20;;;;;;;16.52;63.24;151804.84;1763468;81;21029;-60
2022/05/02 07:24:46;;;;;;;6.30;4.33;;;;;;;16.53;62.98;151806.13;1735809;81;21305;-58
2022/05/02 07:27:52;;;;;;;5.47;3.70;;;;;;;16.47;62.96;151791.83;1751885;81;21010;-59
2022/05/02 07:30:22;;;;;;;6.42;4.22;;;;;;;16.51;62.08;151800.92;1692682;83;20963;-59
2022/05/02 07:32:55;;;;;;;7.08;3.92;;;;;;;16.60;61.43;151825.69;1757143;80;21034;-59
2022/05/02 07:35:23;;;;;;;6.62;4.08;;;;;;;16.63;61.11;151830.89;1759989;81;21085;-59
2022/05/02 07:37:50;;;;;;;6.75;3.85;;;;;;;16.58;61.24;151820.47;1759658;81;21823;-60
2022/05/02 07:40:21;;;;;;;6.35;4.08;;;;;;;16.60;60.99;151824.41;1761304;81;21014;-61
2022/05/02 07:42:48;;;;;;;6.47;3.90;;;;;;;16.64;60.75;151833.50;1761123;81;21724;-60
2022/05/02 07:45:17;;;;;;;5.72;3.70;;;;;;;16.73;60.02;151858.25;1759153;80;21053;-58
2022/05/02 07:47:47;;;;;;;9.28;3.83;;;;;;;16.80;59.36;151873.87;1744364;81;21029;-59
2022/05/02 07:50:14;;;;;;;7.03;3.60;;;;;;;16.88;59.22;151896.05;1753447;80;21235;-60
2022/05/02 07:52:42;;;;;;;5.33;3.55;;;;;;;16.97;58.67;151918.22;1754247;81;21047;-59
2022/05/02 07:55:10;;;;;;;8.10;3.67;;;;;;;17.10;58.17;151949.56;1763282;81;21029;-60
2022/05/02 07:57:38;;;;;;;6.97;3.90;;;;;;;17.18;57.13;151971.73;1761100;81;20970;-59
2022/05/02 08:00:08;;;;;;;5.80;3.60;;;;;;;17.29;56.57;151999.11;1763084;81;21633;-60
2022/05/02 08:02:42;;;;;;;8.58;3.80;;;;;;;17.42;56.46;152030.37;1765946;81;21618;-60
2022/05/02 08:05:09;;;;;;;7.03;3.87;;;;;;;17.55;55.56;152062.97;1766455;80;21037;-59
2022/05/02 08:07:39;;;;;;;6.67;3.65;;;;;;;17.54;55.17;152060.36;1766542;80;21048;-60
2022/05/02 08:10:14;;;;;;;5.87;3.90;;;;;;;17.51;55.06;152053.87;1766354;81;21100;-60
2022/05/02 08:12:57;;;;;;;5.72;3.35;;;;;;;17.54;54.09;152061.69;1766112;81;21553;-60
2022/05/02 08:15:28;;;;;;;8.43;3.65;;;;;;;17.59;53.58;152073.44;1752710;81;21501;-60
2022/05/02 08:18:15;;;;;;;8.40;4.80;;;;;;;17.65;53.88;152089.06;1749413;81;21470;-60
2022/05/02 08:20:59;;;;;;;10.03;4.08;;;;;;;17.69;53.88;152098.22;1749596;81;21051;-59
2022/05/02 08:27:16;;;;;;;8.25;3.70;;;;;;;17.69;54.44;152098.22;1760980;81;20946;-60
2022/05/02 08:30:17;;;;;;;6.20;4.00;;;;;;;17.72;54.12;152107.31;1730335;82;22706;-59
2022/05/02 08:33:02;;;;;;;7.20;3.70;;;;;;;17.71;53.34;152104.70;1731037;81;20926;-60
2022/05/02 08:35:44;;;;;;;6.80;4.40;;;;;;;17.70;53.78;152102.09;1759229;81;21006;-60
2022/05/02 08:38:18;;;;;;;10.35;3.92;;;;;;;17.66;53.51;152091.69;1761021;81;21174;-60
2022/05/02 08:41:04;;;;;;;5.97;4.25;;;;;;;17.65;53.66;152087.75;1760658;81;21049;-60
2022/05/02 08:44:13;;;;;;;8.15;4.15;;;;;;;17.63;54.28;152083.86;1712669;81;21868;-60
2022/05/02 08:46:52;;;;;;;6.15;4.17;;;;;;;17.63;55.79;152083.86;1760165;81;21053;-59
2022/05/02 08:49:40;;;;;;;10.43;4.90;;;;;;;17.59;57.13;152073.44;1760906;81;21026;-59
2022/05/02 08:52:48;;;;;;;6.80;4.12;;;;;;;17.51;58.32;152053.87;1757614;80;21076;-61
2022/05/02 08:55:51;;;;;;;6.55;4.12;;;;;;;17.43;59.18;152034.31;1718504;81;21025;-61
2022/05/02 08:58:59;;;;;;;6.10;4.08;;;;;;;17.43;58.45;152032.98;1766669;81;22741;-60
2022/05/02 09:01:57;;;;;;;6.28;4.12;;;;;;;17.43;58.43;152034.31;1766763;81;20973;-58
2022/05/02 09:04:42;;;;;;;5.60;4.33;;;;;;;17.45;57.74;152039.52;1762712;81;21053;-61
2022/05/02 09:08:08;;;;;;;6.03;4.45;;;;;;;17.39;58.07;152022.56;1760248;81;21017;-61
2022/05/02 09:11:32;;;;;;;7.70;4.20;;;;;;;17.27;59.49;151992.56;1750501;81;21105;-58
2022/05/02 09:14:31;;;;;;;9.18;4.20;;;;;;;17.19;61.15;151973.00;1760519;81;21215;-59
2022/05/02 09:17:52;;;;;;;9.30;4.62;;;;;;;17.13;61.34;151958.70;1730311;81;21104;-60
2022/05/02 09:20:40;;;;;;;8.48;4.62;;;;;;;17.08;60.88;151945.63;1755196;81;21383;-61
2022/05/02 09:23:29;;;;;;;7.35;5.25;;;;;;;17.00;61.21;151926.06;1755711;80;21041;-61
2022/05/02 09:26:34;;;;;;;7.20;5.00;;;;;;;16.96;61.75;151914.33;1743434;81;21084;-61
2022/05/02 09:29:33;;;;;;;6.87;4.50;;;;;;;16.89;61.51;151898.66;1752183;80;21312;-60
2022/05/02 09:32:10;;;;;;;6.87;4.20;;;;;;;16.83;60.57;151883.03;1751441;81;21701;-60
2022/05/02 09:34:47;;;;;;;10.48;5.60;;;;;;;16.86;59.49;151890.84;1761036;81;21646;-60
2022/05/02 09:37:40;;;;;;;11.70;6.12;;;;;;;16.89;59.53;151897.38;1761098;81;21053;-60
2022/05/02 09:40:13;;;;;;;8.58;5.72;;;;;;;16.89;59.52;151898.66;1732112;80;21118;-60
2022/05/02 09:43:19;;;;;;;11.35;5.67;;;;;;;16.90;60.04;151901.25;1758411;80;21289;-59
2022/05/02 09:49:43;;;;;;;8.18;5.60;;;;;;;16.96;58.80;151914.33;1755660;81;21052;-60
2022/05/02 09:52:15;;;;;;;10.50;5.60;;;;;;;17.01;58.22;151927.41;1753547;81;20970;-61
2022/05/02 09:57:36;;;;;;;8.85;5.65;;;;;;;17.08;59.04;151944.36;1730537;82;22046;-59
2022/05/02 10:02:52;;;;;;;9.15;4.62;;;;;;;17.14;57.57;151959.98;1754427;81;21030;-61
2022/05/02 10:05:39;;;;;;;7.55;5.20;;;;;;;17.21;56.16;151976.94;1753531;80;20911;-61
2022/05/02 10:08:36;;;;;;;7.65;5.12;;;;;;;17.33;55.87;152008.20;1753685;81;21030;-61
2022/05/02 10:11:37;;;;;;;16.45;6.67;;;;;;;17.46;55.12;152042.12;1753560;81;21141;-61
2022/05/02 10:14:57;;;;;;;14.03;6.40;;;;;;;17.59;55.54;152074.72;1742159;80;21081;-61
2022/05/02 10:18:03;;;;;;;11.93;6.42;;;;;;;17.66;56.20;152090.34;1740770;80;20964;-59
2022/05/02 10:21:23;;;;;;;16.10;7.20;;;;;;;17.66;55.78;152091.69;1741161;82;20967;-62
2022/05/02 10:24:23;;;;;;;10.20;6.42;;;;;;;17.63;55.44;152083.86;1744109;80;21010;-62
2022/05/02 10:27:18;;;;;;;13.80;6.70;;;;;;;17.61;54.69;152079.94;1727548;82;22002;-61
2022/05/02 10:29:54;;;;;;;12.47;6.75;;;;;;;17.59;54.88;152073.44;1748050;82;21053;-61
2022/05/02 10:32:46;;;;;;;10.10;5.97;;;;;;;17.55;54.58;152062.97;1747323;81;20940;-61
2022/05/02 10:35:15;;;;;;;8.88;5.67;;;;;;;17.48;55.01;152046.05;1733078;82;21093;-59
2022/05/02 10:38:00;;;;;;;9.85;5.15;;;;;;;17.38;53.99;152021.28;1750221;82;21084;-60
2022/05/02 10:40:39;;;;;;;8.70;5.05;;;;;;;17.31;54.91;152004.31;1748611;80;21094;-60
2022/05/02 10:43:09;;;;;;;10.13;4.37;;;;;;;17.26;53.90;151991.30;1749843;82;20934;-60
2022/05/02 10:45:39;;;;;;;7.08;3.92;;;;;;;17.26;54.43;151989.97;1748567;80;21066;-59
2022/05/02 10:48:21;;;;;;;5.80;3.50;;;;;;;17.26;52.70;151989.97;1738838;80;21074;-59
2022/05/02 10:51:06;;;;;;;10.13;4.55;;;;;;;17.30;52.59;152001.72;1747022;80;21021;-60
2022/05/02 10:53:53;;;;;;;5.87;3.90;;;;;;;17.31;52.66;152003.00;1750209;82;21213;-59
2022/05/02 10:56:41;;;;;;;7.03;3.20;;;;;;;17.33;52.13;152009.53;1744800;81;21019;-60
2022/05/02 10:59:12;;;;;;;5.30;3.25;;;;;;;17.36;51.30;152016.06;1745441;81;21698;-60
2022/05/02 11:02:07;;;;;;;8.48;4.00;;;;;;;17.43;50.80;152034.31;1747108;81;20975;-60
2022/05/02 11:05:04;;;;;;;5.40;3.52;;;;;;;17.50;51.23;152049.94;1702977;83;21041;-58
2022/05/02 11:07:54;;;;;;;6.28;3.83;;;;;;;17.57;51.89;152068.19;1747288;81;21469;-59
2022/05/02 11:10:24;;;;;;;16.62;5.22;;;;;;;17.69;52.08;152099.50;1735914;82;20954;-59
2022/05/02 11:13:20;;;;;;;8.55;5.42;;;;;;;17.76;51.64;152117.73;1746687;80;21045;-59
2022/05/02 11:16:04;;;;;;;15.98;6.10;;;;;;;17.78;52.90;152120.34;1743711;82;21049;-58
2022/05/02 11:21:46;;;;;;;9.20;5.95;;;;;;;17.63;56.75;152082.53;1730110;80;21942;-60
2022/05/02 11:24:50;;;;;;;9.03;5.40;;;;;;;17.52;58.09;152055.16;1744016;81;21041;-61
2022/05/02 11:28:00;;;;;;;8.50;5.40;;;;;;;17.39;58.66;152023.89;1748397;81;21531;-59
2022/05/02 11:30:28;;;;;;;7.95;5.12;;;;;;;17.28;58.42;151995.17;1750235;82;21084;-60
2022/05/02 11:33:18;;;;;;;7.53;5.20;;;;;;;17.23;60.56;151982.16;1745757;80;21025;-58
2022/05/02 11:35:48;;;;;;;12.20;4.90;;;;;;;17.22;61.10;151980.81;1720422;82;21109;-60
2022/05/02 11:38:30;;;;;;;8.25;5.05;;;;;;;17.26;60.34;151989.97;1736472;82;21022;-61
2022/05/02 11:41:19;;;;;;;10.13;4.80;;;;;;;17.29;58.66;151997.78;1747293;82;21468;-60
2022/05/02 11:43:48;;;;;;;8.60;5.47;;;;;;;17.39;58.70;152023.89;1735555;80;21697;-60
2022/05/02 11:46:22;;;;;;;10.72;5.42;;;;;;;17.44;60.05;152036.91;1725167;82;21058;-59
2022/05/02 11:49:11;;;;;;;;;;;;;;;17.45;60.87;152038.19;1748844;80;21266;-59
2022/05/02 11:51:50;;;;;;;11.03;4.95;;;;;;;17.44;60.99;152036.91;1738287;80;20715;-58
2022/05/02 11:54:39;;;;;;;10.82;5.12;;;;;;;17.52;59.78;152055.16;1744210;82;21006;-59
2022/05/02 11:57:25;;;;;;;7.45;5.05;;;;;;;17.60;58.79;152076.05;1748473;82;21051;-60
2022/05/02 11:59:58;;;;;;;;;;;;;;;17.66;59.26;152091.69;1752339;82;21042;-59
2022/05/02 12:02:39;;;;;;;7.00;4.53;;;;;;;17.75;58.25;152113.84;1750081;80;21296;-60
2022/05/02 12:05:34;;;;;;;7.12;4.28;;;;;;;17.80;57.33;152126.89;1749006;80;21045;-60
2022/05/02 12:08:06;;;;;;;7.35;4.50;;;;;;;17.81;54.25;152128.22;1749323;82;21077;-59
2022/05/02 12:10:45;;;;;;;7.92;4.12;;;;;;;17.71;54.02;152104.70;1750056;82;21393;-60
2022/05/02 12:13:18;;;;;;;6.28;4.10;;;;;;;17.67;53.29;152092.95;1748443;80;21111;-60
2022/05/02 12:16:00;;;;;;;6.62;4.50;;;;;;;17.64;52.37;152086.47;1744946;82;21187;-59
2022/05/02 12:18:51;;;;;;;6.25;3.95;;;;;;;17.61;51.68;152079.94;1745168;80;21055;-58
2022/05/02 12:21:31;;;;;;;5.45;3.40;;;;;;;17.59;49.58;152074.72;1751059;80;21100;-59
2022/05/02 12:24:00;;;;;;;6.67;3.15;;;;;;;17.52;47.96;152055.16;1726763;81;21045;-58
2022/05/02 12:26:27;;;;;;;7.78;3.30;;;;;;;17.44;47.86;152036.91;1760494;81;21057;-63
2022/05/02 12:28:58;;;;;;;7.20;3.33;;;;;;;17.37;47.60;152018.67;1756435;81;21227;-60
2022/05/02 12:31:34;;;;;;;4.78;3.08;;;;;;;17.29;47.94;151997.78;1757319;81;20948;-60
2022/05/02 12:34:06;;;;;;;6.00;3.30;;;;;;;17.20;49.24;151974.33;1757308;80;21348;-60
2022/05/02 12:36:51;;;;;;;5.92;2.85;;;;;;;17.09;49.75;151948.23;1755645;81;21404;-61